PWSweather.com
Personal Weather Stations
Station Observations
KCTCOLEB1
Sandy Brook, Colebrook, CT 06021

Sandy BrookColebrook, CT 06021

Lat: 42.0018, Lon: -73.0825

Elevation: 935

Station Type: Davis Vantage Pro2 + Solar + UV

High Low Average
Temperature 50.0°F10.0°C 30.2°F-1.0°C 38.8°F3.8°C
Dew Point 49.1°F9.5°C 24.2°F-4.3°C 35.7°F2.1°C
Winds 5.8 mph 9.3 kmh Calm Calm 2.0 mph S3.2 kmh S
Wind Gusts 10.4 mph16.7 kmh -- 3.0 mph4.8 kmh
Humidity 99% 74% 89%
Pressure 30.11 in1019.6 mb 29.54 in1000.3 mb -
Precipitation 0.12 in3.0 mm - -
Hour Temp Dew Point Humidity Winds Wind Gusts Pressure Precip Precip Rate Daily Precip Total
12:00 AM 36.8°F2.7°C 36.0°F2.2°C 97% 2.3 mph SW3.7 kmh SW 3.5 mph5.6 kmh 29.86 in1011.2 mb - 0.00 in0.0 mm 0.00 in0.0 mm
12:10 AM 36.8°F2.7°C 36.0°F2.2°C 97% 1.2 mph NW1.9 kmh NW 3.5 mph5.6 kmh 29.84 in1010.5 mb - 0.01 in0.3 mm 0.01 in0.3 mm
12:20 AM 36.9°F2.7°C 36.1°F2.3°C 97% 2.3 mph N3.7 kmh N 2.3 mph3.7 kmh 29.82 in1009.8 mb - 0.00 in0.0 mm 0.01 in0.3 mm
12:30 AM 37.0°F2.8°C 36.5°F2.5°C 98% Calm Calm 1.2 mph1.9 kmh 29.82 in1009.8 mb - 0.00 in0.0 mm 0.01 in0.3 mm
12:40 AM 37.1°F2.8°C 36.6°F2.6°C 98% Calm Calm 1.2 mph1.9 kmh 29.81 in1009.5 mb - 0.00 in0.0 mm 0.01 in0.3 mm
12:50 AM 37.2°F2.9°C 36.4°F2.4°C 97% 2.3 mph SSE3.7 kmh SSE 3.5 mph5.6 kmh 29.80 in1009.1 mb - 0.01 in0.3 mm 0.02 in0.5 mm
01:00 AM 37.2°F2.9°C 36.4°F2.4°C 97% Calm Calm -- 29.78 in1008.5 mb - 0.01 in0.3 mm 0.03 in0.8 mm
01:10 AM 37.1°F2.8°C 36.6°F2.6°C 98% Calm Calm -- 29.77 in1008.1 mb - 0.02 in0.5 mm 0.05 in1.3 mm
01:20 AM 37.0°F2.8°C 36.5°F2.5°C 98% Calm Calm 1.2 mph1.9 kmh 29.75 in1007.5 mb - 0.02 in0.5 mm 0.07 in1.8 mm
01:30 AM 37.0°F2.8°C 36.5°F2.5°C 98% Calm Calm 1.2 mph1.9 kmh 29.74 in1007.1 mb - 0.01 in0.3 mm 0.08 in2.0 mm
01:40 AM 37.0°F2.8°C 36.5°F2.5°C 98% 1.2 mph S1.9 kmh S 2.3 mph3.7 kmh 29.72 in1006.4 mb - 0.00 in0.0 mm 0.08 in2.0 mm
01:50 AM 36.8°F2.7°C 36.0°F2.2°C 97% Calm Calm -- 29.71 in1006.1 mb - 0.01 in0.3 mm 0.09 in2.3 mm
02:00 AM 36.5°F2.5°C 35.7°F2.1°C 97% Calm Calm -- 29.70 in1005.8 mb - 0.00 in0.0 mm 0.09 in2.3 mm
02:10 AM 36.3°F2.4°C 35.5°F1.9°C 97% Calm Calm -- 29.69 in1005.4 mb - 0.00 in0.0 mm 0.09 in2.3 mm
02:20 AM 36.2°F2.3°C 35.4°F1.9°C 97% Calm Calm -- 29.67 in1004.7 mb - 0.00 in0.0 mm 0.09 in2.3 mm
02:30 AM 36.1°F2.3°C 35.3°F1.8°C 97% Calm Calm -- 29.65 in1004.1 mb - 0.00 in0.0 mm 0.09 in2.3 mm
02:40 AM 35.9°F2.2°C 35.1°F1.7°C 97% Calm Calm -- 29.65 in1004.1 mb - 0.00 in0.0 mm 0.09 in2.3 mm
02:50 AM 35.8°F2.1°C 35.0°F1.7°C 97% Calm Calm -- 29.65 in1004.1 mb - 0.00 in0.0 mm 0.09 in2.3 mm
03:00 AM 35.8°F2.1°C 35.0°F1.7°C 97% Calm Calm -- 29.63 in1003.4 mb - 0.00 in0.0 mm 0.09 in2.3 mm
03:10 AM 35.7°F2.1°C 34.9°F1.6°C 97% Calm Calm -- 29.63 in1003.4 mb - 0.01 in0.3 mm 0.10 in2.5 mm
03:20 AM 35.6°F2.0°C 34.8°F1.6°C 97% Calm Calm -- 29.63 in1003.4 mb - 0.00 in0.0 mm 0.10 in2.5 mm
03:30 AM 35.6°F2.0°C 34.8°F1.6°C 97% Calm Calm -- 29.62 in1003.0 mb - 0.00 in0.0 mm 0.10 in2.5 mm
03:40 AM 35.6°F2.0°C 34.8°F1.6°C 97% Calm Calm -- 29.61 in1002.7 mb - 0.01 in0.3 mm 0.11 in2.8 mm
03:50 AM 35.5°F1.9°C 34.7°F1.5°C 97% Calm Calm -- 29.60 in1002.4 mb - 0.00 in0.0 mm 0.11 in2.8 mm
04:00 AM 35.5°F1.9°C 34.7°F1.5°C 97% Calm Calm -- 29.59 in1002.0 mb - 0.00 in0.0 mm 0.11 in2.8 mm
04:10 AM 35.5°F1.9°C 34.7°F1.5°C 97% Calm Calm -- 29.58 in1001.7 mb - 0.00 in0.0 mm 0.11 in2.8 mm
04:20 AM 35.4°F1.9°C 34.7°F1.5°C 97% Calm Calm -- 29.57 in1001.4 mb - 0.00 in0.0 mm 0.11 in2.8 mm
04:30 AM 35.4°F1.9°C 34.6°F1.4°C 97% Calm Calm -- 29.57 in1001.4 mb - 0.00 in0.0 mm 0.11 in2.8 mm
04:40 AM 35.4°F1.9°C 34.9°F1.6°C 98% Calm Calm -- 29.57 in1001.4 mb - 0.00 in0.0 mm 0.11 in2.8 mm
04:50 AM 35.5°F1.9°C 35.0°F1.7°C 98% Calm Calm -- 29.57 in1001.4 mb - 0.00 in0.0 mm 0.11 in2.8 mm
05:00 AM 35.5°F1.9°C 35.0°F1.7°C 98% Calm Calm 2.3 mph3.7 kmh 29.55 in1000.7 mb - 0.00 in0.0 mm 0.11 in2.8 mm
05:10 AM 35.7°F2.1°C 35.2°F1.8°C 98% Calm Calm 1.2 mph1.9 kmh 29.55 in1000.7 mb - 0.00 in0.0 mm 0.11 in2.8 mm
05:20 AM 36.5°F2.5°C 36.0°F2.2°C 98% 1.2 mph WNW1.9 kmh WNW 3.5 mph5.6 kmh 29.54 in1000.3 mb - 0.00 in0.0 mm 0.11 in2.8 mm
05:30 AM 41.7°F5.4°C 41.1°F5.1°C 98% 2.3 mph NNE3.7 kmh NNE 10.4 mph16.7 kmh 29.54 in1000.3 mb - 0.00 in0.0 mm 0.11 in2.8 mm
05:40 AM 45.4°F7.4°C 45.2°F7.3°C 99% 3.5 mph N5.6 kmh N 3.5 mph5.6 kmh 29.54 in1000.3 mb - 0.00 in0.0 mm 0.11 in2.8 mm
05:50 AM 46.3°F7.9°C 46.0°F7.8°C 99% 2.3 mph N3.7 kmh N 3.5 mph5.6 kmh 29.54 in1000.3 mb - 0.00 in0.0 mm 0.11 in2.8 mm
06:00 AM 46.5°F8.1°C 46.0°F7.8°C 98% 2.3 mph NNE3.7 kmh NNE 3.5 mph5.6 kmh 29.54 in1000.3 mb - 0.00 in0.0 mm 0.11 in2.8 mm
06:10 AM 47.0°F8.3°C 46.5°F8.1°C 98% 2.3 mph ENE3.7 kmh ENE 3.5 mph5.6 kmh 29.55 in1000.7 mb - 0.00 in0.0 mm 0.11 in2.8 mm
06:20 AM 47.2°F8.4°C 46.9°F8.3°C 99% 3.5 mph N5.6 kmh N 3.5 mph5.6 kmh 29.54 in1000.3 mb - 0.00 in0.0 mm 0.11 in2.8 mm
06:30 AM 47.3°F8.5°C 47.0°F8.3°C 99% 2.3 mph E3.7 kmh E 3.5 mph5.6 kmh 29.54 in1000.3 mb - 0.00 in0.0 mm 0.11 in2.8 mm
06:40 AM 47.2°F8.4°C 46.7°F8.2°C 98% 2.3 mph NNE3.7 kmh NNE 4.6 mph7.4 kmh 29.54 in1000.3 mb - 0.00 in0.0 mm 0.11 in2.8 mm
06:50 AM 47.3°F8.5°C 47.0°F8.3°C 99% 1.2 mph N1.9 kmh N 3.5 mph5.6 kmh 29.54 in1000.3 mb - 0.00 in0.0 mm 0.11 in2.8 mm
07:00 AM 47.3°F8.5°C 47.0°F8.3°C 99% 2.3 mph NNE3.7 kmh NNE 3.5 mph5.6 kmh 29.54 in1000.3 mb - 0.00 in0.0 mm 0.11 in2.8 mm
07:10 AM 47.8°F8.8°C 47.5°F8.6°C 99% 4.6 mph NNE7.4 kmh NNE 8.1 mph13.0 kmh 29.54 in1000.3 mb - 0.00 in0.0 mm 0.11 in2.8 mm
07:20 AM 48.1°F8.9°C 47.6°F8.7°C 98% 2.3 mph NW3.7 kmh NW 2.3 mph3.7 kmh 29.54 in1000.3 mb - 0.00 in0.0 mm 0.11 in2.8 mm
07:30 AM 48.1°F8.9°C 47.6°F8.7°C 98% 1.2 mph NE1.9 kmh NE 3.5 mph5.6 kmh 29.55 in1000.7 mb - 0.00 in0.0 mm 0.11 in2.8 mm
07:40 AM 48.1°F8.9°C 47.6°F8.7°C 98% 3.5 mph NE5.6 kmh NE 3.5 mph5.6 kmh 29.55 in1000.7 mb - 0.00 in0.0 mm 0.11 in2.8 mm
07:50 AM 48.4°F9.1°C 48.1°F8.9°C 99% 2.3 mph NE3.7 kmh NE 4.6 mph7.4 kmh 29.55 in1000.7 mb - 0.00 in0.0 mm 0.11 in2.8 mm
08:00 AM 48.6°F9.2°C 48.3°F9.1°C 99% 4.6 mph NE7.4 kmh NE 5.8 mph9.3 kmh 29.55 in1000.7 mb - 0.00 in0.0 mm 0.11 in2.8 mm
08:10 AM 48.8°F9.3°C 48.3°F9.1°C 98% 4.6 mph N7.4 kmh N 10.4 mph16.7 kmh 29.55 in1000.7 mb - 0.00 in0.0 mm 0.11 in2.8 mm
08:20 AM 48.9°F9.4°C 48.4°F9.1°C 98% 3.5 mph NE5.6 kmh NE 3.5 mph5.6 kmh 29.55 in1000.7 mb - 0.00 in0.0 mm 0.11 in2.8 mm
08:30 AM 49.1°F9.5°C 48.9°F9.4°C 99% 4.6 mph NE7.4 kmh NE 10.4 mph16.7 kmh 29.55 in1000.7 mb - 0.01 in0.3 mm 0.12 in3.0 mm
08:40 AM 49.6°F9.8°C 49.1°F9.5°C 98% 4.6 mph NNE7.4 kmh NNE 5.8 mph9.3 kmh 29.56 in1001.0 mb - 0.00 in0.0 mm 0.12 in3.0 mm
08:50 AM 49.9°F9.9°C 48.8°F9.3°C 96% 4.6 mph NNE7.4 kmh NNE 6.9 mph11.1 kmh 29.58 in1001.7 mb - 0.00 in0.0 mm 0.12 in3.0 mm
09:00 AM 50.0°F10.0°C 48.6°F9.2°C 95% 2.3 mph NNE3.7 kmh NNE 3.5 mph5.6 kmh 29.59 in1002.0 mb - 0.00 in0.0 mm 0.12 in3.0 mm
09:10 AM 49.7°F9.8°C 48.3°F9.1°C 95% 2.3 mph N3.7 kmh N 3.5 mph5.6 kmh 29.60 in1002.4 mb - 0.00 in0.0 mm 0.12 in3.0 mm
09:20 AM 49.4°F9.7°C 48.0°F8.9°C 95% 2.3 mph NNE3.7 kmh NNE 3.5 mph5.6 kmh 29.60 in1002.4 mb - 0.00 in0.0 mm 0.12 in3.0 mm
09:30 AM 49.2°F9.6°C 47.8°F8.8°C 95% 4.6 mph N7.4 kmh N 10.4 mph16.7 kmh 29.60 in1002.4 mb - 0.00 in0.0 mm 0.12 in3.0 mm
09:40 AM 49.0°F9.4°C 47.4°F8.6°C 94% 2.3 mph N3.7 kmh N 3.5 mph5.6 kmh 29.62 in1003.0 mb - 0.00 in0.0 mm 0.12 in3.0 mm
09:50 AM 48.9°F9.4°C 47.0°F8.3°C 93% 2.3 mph NNE3.7 kmh NNE 3.5 mph5.6 kmh 29.62 in1003.0 mb - 0.00 in0.0 mm 0.12 in3.0 mm
10:00 AM 49.1°F9.5°C 46.3°F7.9°C 90% 3.5 mph NNW5.6 kmh NNW 4.6 mph7.4 kmh 29.63 in1003.4 mb - 0.00 in0.0 mm 0.12 in3.0 mm
10:10 AM 49.6°F9.8°C 45.9°F7.7°C 87% 3.5 mph N5.6 kmh N 5.8 mph9.3 kmh 29.64 in1003.7 mb - 0.00 in0.0 mm 0.12 in3.0 mm
10:20 AM 50.0°F10.0°C 45.4°F7.4°C 84% 4.6 mph WNW7.4 kmh WNW 9.2 mph14.8 kmh 29.65 in1004.1 mb - 0.00 in0.0 mm 0.12 in3.0 mm
10:30 AM 49.3°F9.6°C 44.0°F6.7°C 82% 5.8 mph N9.3 kmh N 10.4 mph16.7 kmh 29.66 in1004.4 mb - 0.00 in0.0 mm 0.12 in3.0 mm
10:40 AM 48.4°F9.1°C 42.2°F5.7°C 79% 5.8 mph NNE9.3 kmh NNE 9.2 mph14.8 kmh 29.66 in1004.4 mb - 0.00 in0.0 mm 0.12 in3.0 mm
10:50 AM 48.1°F8.9°C 41.2°F5.1°C 77% 3.5 mph NE5.6 kmh NE 5.8 mph9.3 kmh 29.67 in1004.7 mb - 0.00 in0.0 mm 0.12 in3.0 mm
11:00 AM 47.8°F8.8°C 39.9°F4.4°C 74% 2.3 mph NNE3.7 kmh NNE 9.2 mph14.8 kmh 29.67 in1004.7 mb - 0.00 in0.0 mm 0.12 in3.0 mm
04:20 PM 37.0°F2.8°C 31.1°F-0.5°C 79% 2.3 mph NNE3.7 kmh NNE 3.5 mph5.6 kmh 29.93 in1013.5 mb - 0.00 in0.0 mm 0.12 in3.0 mm
04:30 PM 36.6°F2.6°C 31.0°F-0.6°C 80% 1.2 mph NNW1.9 kmh NNW 2.3 mph3.7 kmh 29.93 in1013.5 mb - 0.00 in0.0 mm 0.12 in3.0 mm
04:40 PM 36.4°F2.4°C 30.8°F-0.7°C 80% 1.2 mph SW1.9 kmh SW 2.3 mph3.7 kmh 29.94 in1013.9 mb - 0.00 in0.0 mm 0.12 in3.0 mm
04:50 PM 36.2°F2.3°C 30.9°F-0.6°C 81% Calm Calm 2.3 mph3.7 kmh 29.95 in1014.2 mb - 0.00 in0.0 mm 0.12 in3.0 mm
05:00 PM 36.0°F2.2°C 31.3°F-0.4°C 83% 1.2 mph NW1.9 kmh NW 1.2 mph1.9 kmh 29.95 in1014.2 mb - 0.00 in0.0 mm 0.12 in3.0 mm
05:10 PM 35.7°F2.1°C 31.0°F-0.6°C 83% 1.2 mph NE1.9 kmh NE 2.3 mph3.7 kmh 29.95 in1014.2 mb - 0.00 in0.0 mm 0.12 in3.0 mm
05:20 PM 35.7°F2.1°C 31.0°F-0.6°C 83% 1.2 mph NNE1.9 kmh NNE 8.1 mph13.0 kmh 29.97 in1014.9 mb - 0.00 in0.0 mm 0.12 in3.0 mm
05:30 PM 35.8°F2.1°C 30.5°F-0.8°C 81% 1.2 mph NW1.9 kmh NW 3.5 mph5.6 kmh 29.97 in1014.9 mb - 0.00 in0.0 mm 0.12 in3.0 mm
05:40 PM 35.9°F2.2°C 30.9°F-0.6°C 82% 1.2 mph N1.9 kmh N 3.5 mph5.6 kmh 29.98 in1015.2 mb - 0.00 in0.0 mm 0.12 in3.0 mm
05:50 PM 36.0°F2.2°C 30.7°F-0.7°C 81% 1.2 mph WNW1.9 kmh WNW 2.3 mph3.7 kmh 29.99 in1015.6 mb - 0.00 in0.0 mm 0.12 in3.0 mm
06:00 PM 36.0°F2.2°C 31.0°F-0.6°C 82% 2.3 mph N3.7 kmh N 3.5 mph5.6 kmh 29.99 in1015.6 mb - 0.00 in0.0 mm 0.12 in3.0 mm
06:10 PM 35.9°F2.2°C 30.6°F-0.8°C 81% 3.5 mph N5.6 kmh N 10.4 mph16.7 kmh 30.00 in1015.9 mb - 0.00 in0.0 mm 0.12 in3.0 mm
06:20 PM 35.8°F2.1°C 29.9°F-1.2°C 79% 2.3 mph E3.7 kmh E 2.3 mph3.7 kmh 30.01 in1016.3 mb - 0.00 in0.0 mm 0.12 in3.0 mm
06:30 PM 35.6°F2.0°C 30.3°F-0.9°C 81% 1.2 mph ENE1.9 kmh ENE 3.5 mph5.6 kmh 30.01 in1016.3 mb - 0.00 in0.0 mm 0.12 in3.0 mm
06:40 PM 35.4°F1.9°C 29.5°F-1.4°C 79% 3.5 mph NW5.6 kmh NW 4.6 mph7.4 kmh 30.02 in1016.6 mb - 0.00 in0.0 mm 0.12 in3.0 mm
06:50 PM 35.1°F1.7°C 28.9°F-1.7°C 78% 3.5 mph NW5.6 kmh NW 6.9 mph11.1 kmh 30.02 in1016.6 mb - 0.00 in0.0 mm 0.12 in3.0 mm
07:00 PM 34.9°F1.6°C 28.7°F-1.8°C 78% Calm Calm 1.2 mph1.9 kmh 30.02 in1016.6 mb - 0.00 in0.0 mm 0.12 in3.0 mm
07:10 PM 34.5°F1.4°C 28.3°F-2.1°C 78% 1.2 mph N1.9 kmh N 6.9 mph11.1 kmh 30.03 in1016.9 mb - 0.00 in0.0 mm 0.12 in3.0 mm
07:20 PM 34.2°F1.2°C 27.7°F-2.4°C 77% 2.3 mph NW3.7 kmh NW 2.3 mph3.7 kmh 30.03 in1016.9 mb - 0.00 in0.0 mm 0.12 in3.0 mm
07:30 PM 33.9°F1.1°C 28.1°F-2.2°C 79% 1.2 mph NE1.9 kmh NE 3.5 mph5.6 kmh 30.03 in1016.9 mb - 0.00 in0.0 mm 0.12 in3.0 mm
07:40 PM 33.6°F0.9°C 27.8°F-2.3°C 79% Calm Calm 2.3 mph3.7 kmh 30.04 in1017.3 mb - 0.00 in0.0 mm 0.12 in3.0 mm
07:50 PM 33.4°F0.8°C 27.9°F-2.3°C 80% 1.2 mph W1.9 kmh W 2.3 mph3.7 kmh 30.04 in1017.3 mb - 0.00 in0.0 mm 0.12 in3.0 mm
08:00 PM 33.3°F0.7°C 27.5°F-2.5°C 79% 3.5 mph NE5.6 kmh NE 3.5 mph5.6 kmh 30.04 in1017.3 mb - 0.00 in0.0 mm 0.12 in3.0 mm
08:10 PM 33.5°F0.8°C 27.1°F-2.7°C 77% 1.2 mph NNW1.9 kmh NNW 2.3 mph3.7 kmh 30.05 in1017.6 mb - 0.00 in0.0 mm 0.12 in3.0 mm
08:20 PM 33.6°F0.9°C 27.2°F-2.7°C 77% 2.3 mph NNE3.7 kmh NNE 4.6 mph7.4 kmh 30.06 in1017.9 mb - 0.00 in0.0 mm 0.12 in3.0 mm
08:30 PM 33.6°F0.9°C 27.2°F-2.7°C 77% 2.3 mph N3.7 kmh N 3.5 mph5.6 kmh 30.06 in1017.9 mb - 0.00 in0.0 mm 0.12 in3.0 mm
08:40 PM 33.5°F0.8°C 26.7°F-2.9°C 76% 1.2 mph NNE1.9 kmh NNE 2.3 mph3.7 kmh 30.06 in1017.9 mb - 0.00 in0.0 mm 0.12 in3.0 mm
08:50 PM 33.3°F0.7°C 26.9°F-2.8°C 77% 1.2 mph NW1.9 kmh NW 2.3 mph3.7 kmh 30.06 in1017.9 mb - 0.00 in0.0 mm 0.12 in3.0 mm
09:00 PM 33.1°F0.6°C 26.7°F-2.9°C 77% 1.2 mph NNE1.9 kmh NNE 3.5 mph5.6 kmh 30.07 in1018.3 mb - 0.00 in0.0 mm 0.12 in3.0 mm
09:10 PM 32.8°F0.4°C 26.4°F-3.1°C 77% 1.2 mph NE1.9 kmh NE 1.2 mph1.9 kmh 30.08 in1018.6 mb - 0.00 in0.0 mm 0.12 in3.0 mm
09:20 PM 32.6°F0.3°C 26.2°F-3.2°C 77% 2.3 mph N3.7 kmh N 3.5 mph5.6 kmh 30.08 in1018.6 mb - 0.00 in0.0 mm 0.12 in3.0 mm
09:30 PM 32.5°F0.3°C 26.1°F-3.3°C 77% 1.2 mph NW1.9 kmh NW 1.2 mph1.9 kmh 30.07 in1018.3 mb - 0.00 in0.0 mm 0.12 in3.0 mm
09:40 PM 32.4°F0.2°C 26.0°F-3.3°C 77% 1.2 mph N1.9 kmh N 3.5 mph5.6 kmh 30.07 in1018.3 mb - 0.00 in0.0 mm 0.12 in3.0 mm
09:50 PM 32.2°F0.1°C 25.8°F-3.4°C 77% 2.3 mph N3.7 kmh N 2.3 mph3.7 kmh 30.07 in1018.3 mb - 0.00 in0.0 mm 0.12 in3.0 mm
10:00 PM 32.0°F0.0°C 25.6°F-3.6°C 77% 2.3 mph NE3.7 kmh NE 3.5 mph5.6 kmh 30.07 in1018.3 mb - 0.00 in0.0 mm 0.12 in3.0 mm
10:10 PM 31.8°F-0.1°C 25.4°F-3.7°C 77% 1.2 mph N1.9 kmh N 2.3 mph3.7 kmh 30.09 in1019.0 mb - 0.00 in0.0 mm 0.12 in3.0 mm
10:20 PM 31.6°F-0.2°C 25.2°F-3.8°C 77% 2.3 mph N3.7 kmh N 3.5 mph5.6 kmh 30.09 in1019.0 mb - 0.00 in0.0 mm 0.12 in3.0 mm
10:30 PM 31.5°F-0.3°C 25.1°F-3.8°C 77% 3.5 mph N5.6 kmh N 8.1 mph13.0 kmh 30.09 in1019.0 mb - 0.00 in0.0 mm 0.12 in3.0 mm
10:40 PM 31.4°F-0.3°C 25.0°F-3.9°C 77% 2.3 mph N3.7 kmh N 3.5 mph5.6 kmh 30.09 in1019.0 mb - 0.00 in0.0 mm 0.12 in3.0 mm
10:50 PM 31.3°F-0.4°C 24.9°F-3.9°C 77% 2.3 mph NNE3.7 kmh NNE 5.8 mph9.3 kmh 30.09 in1019.0 mb - 0.00 in0.0 mm 0.12 in3.0 mm
11:00 PM 31.0°F-0.6°C 24.7°F-4.1°C 77% 2.3 mph E3.7 kmh E 6.9 mph11.1 kmh 30.09 in1019.0 mb - 0.00 in0.0 mm 0.12 in3.0 mm
11:10 PM 30.8°F-0.7°C 24.4°F-4.2°C 77% 1.2 mph NW1.9 kmh NW 3.5 mph5.6 kmh 30.09 in1019.0 mb - 0.00 in0.0 mm 0.12 in3.0 mm
11:20 PM 30.7°F-0.7°C 24.3°F-4.3°C 77% 2.3 mph N3.7 kmh N 3.5 mph5.6 kmh 30.09 in1019.0 mb - 0.00 in0.0 mm 0.12 in3.0 mm
11:30 PM 30.6°F-0.8°C 24.2°F-4.3°C 77% 1.2 mph N1.9 kmh N 1.2 mph1.9 kmh 30.10 in1019.3 mb - 0.00 in0.0 mm 0.12 in3.0 mm
11:40 PM 30.4°F-0.9°C 24.4°F-4.2°C 78% 2.3 mph NNW3.7 kmh NNW 3.5 mph5.6 kmh 30.11 in1019.6 mb - 0.00 in0.0 mm 0.12 in3.0 mm
11:50 PM 30.2°F-1.0°C 24.2°F-4.3°C 78% 1.2 mph N1.9 kmh N 2.3 mph3.7 kmh 30.11 in1019.6 mb - 0.00 in0.0 mm 0.12 in3.0 mm